sensor_id;sensor_type;location;lat;lon;timestamp;temperature;humidity
14741;DHT22;7462;53.530;9.414;2022-07-06T00:01:22;15.40;99.90
14741;DHT22;7462;53.530;9.414;2022-07-06T00:03:51;15.50;99.90
14741;DHT22;7462;53.530;9.414;2022-07-06T00:06:22;15.40;99.90
14741;DHT22;7462;53.530;9.414;2022-07-06T00:08:51;15.40;99.90
14741;DHT22;7462;53.530;9.414;2022-07-06T00:11:20;15.50;99.90
14741;DHT22;7462;53.530;9.414;2022-07-06T00:13:48;15.50;99.90
14741;DHT22;7462;53.530;9.414;2022-07-06T00:16:16;15.50;99.90
14741;DHT22;7462;53.530;9.414;2022-07-06T00:18:45;15.50;99.90
14741;DHT22;7462;53.530;9.414;2022-07-06T00:21:13;15.50;99.90
14741;DHT22;7462;53.530;9.414;2022-07-06T00:23:41;15.50;99.90
14741;DHT22;7462;53.530;9.414;2022-07-06T00:26:11;15.50;99.90
14741;DHT22;7462;53.530;9.414;2022-07-06T00:28:39;15.40;99.90
14741;DHT22;7462;53.530;9.414;2022-07-06T00:31:07;15.40;99.90
14741;DHT22;7462;53.530;9.414;2022-07-06T00:33:36;15.40;99.90
14741;DHT22;7462;53.530;9.414;2022-07-06T00:36:04;15.40;99.90
14741;DHT22;7462;53.530;9.414;2022-07-06T00:38:33;15.50;99.90
14741;DHT22;7462;53.530;9.414;2022-07-06T00:41:03;15.50;99.90
14741;DHT22;7462;53.530;9.414;2022-07-06T00:46:28;15.50;99.90
14741;DHT22;7462;53.530;9.414;2022-07-06T00:48:58;15.50;99.90
14741;DHT22;7462;53.530;9.414;2022-07-06T00:51:29;15.50;99.90
14741;DHT22;7462;53.530;9.414;2022-07-06T00:53:59;15.50;99.90
14741;DHT22;7462;53.530;9.414;2022-07-06T00:56:30;15.50;99.90
14741;DHT22;7462;53.530;9.414;2022-07-06T00:59:00;15.50;99.90
14741;DHT22;7462;53.530;9.414;2022-07-06T01:01:30;15.50;99.90
14741;DHT22;7462;53.530;9.414;2022-07-06T01:03:58;15.50;99.90
14741;DHT22;7462;53.530;9.414;2022-07-06T01:06:26;15.50;99.90
14741;DHT22;7462;53.530;9.414;2022-07-06T01:08:55;15.50;99.90
14741;DHT22;7462;53.530;9.414;2022-07-06T01:11:23;15.50;99.90
14741;DHT22;7462;53.530;9.414;2022-07-06T01:13:53;15.50;99.90
14741;DHT22;7462;53.530;9.414;2022-07-06T01:16:22;15.50;99.90
14741;DHT22;7462;53.530;9.414;2022-07-06T01:18:52;15.50;99.90
14741;DHT22;7462;53.530;9.414;2022-07-06T01:21:22;15.50;99.90
14741;DHT22;7462;53.530;9.414;2022-07-06T01:23:50;15.50;99.90
14741;DHT22;7462;53.530;9.414;2022-07-06T01:26:20;15.50;99.90
14741;DHT22;7462;53.530;9.414;2022-07-06T01:28:50;15.50;99.90
14741;DHT22;7462;53.530;9.414;2022-07-06T01:31:20;15.50;99.90
14741;DHT22;7462;53.530;9.414;2022-07-06T01:33:51;15.50;99.90
14741;DHT22;7462;53.530;9.414;2022-07-06T01:36:21;15.50;99.90
14741;DHT22;7462;53.530;9.414;2022-07-06T01:38:52;15.50;99.90
14741;DHT22;7462;53.530;9.414;2022-07-06T01:41:21;15.40;99.90
14741;DHT22;7462;53.530;9.414;2022-07-06T01:43:49;15.50;99.90
14741;DHT22;7462;53.530;9.414;2022-07-06T01:46:17;15.40;99.90
14741;DHT22;7462;53.530;9.414;2022-07-06T01:48:46;15.40;99.90
14741;DHT22;7462;53.530;9.414;2022-07-06T01:51:15;15.40;99.90
14741;DHT22;7462;53.530;9.414;2022-07-06T01:53:46;15.40;99.90
14741;DHT22;7462;53.530;9.414;2022-07-06T01:56:17;15.40;99.90
14741;DHT22;7462;53.530;9.414;2022-07-06T01:58:49;15.30;99.90
14741;DHT22;7462;53.530;9.414;2022-07-06T02:01:20;15.30;99.90
14741;DHT22;7462;53.530;9.414;2022-07-06T02:03:48;15.30;99.90
14741;DHT22;7462;53.530;9.414;2022-07-06T02:06:16;15.30;99.90
14741;DHT22;7462;53.530;9.414;2022-07-06T02:08:48;15.30;99.90
14741;DHT22;7462;53.530;9.414;2022-07-06T02:11:18;15.30;99.90
14741;DHT22;7462;53.530;9.414;2022-07-06T02:13:46;15.30;99.90
14741;DHT22;7462;53.530;9.414;2022-07-06T02:16:14;15.30;99.90
14741;DHT22;7462;53.530;9.414;2022-07-06T02:18:43;15.30;99.90
14741;DHT22;7462;53.530;9.414;2022-07-06T02:21:12;15.30;99.90
14741;DHT22;7462;53.530;9.414;2022-07-06T02:23:40;15.30;99.90
14741;DHT22;7462;53.530;9.414;2022-07-06T02:26:09;15.30;99.90
14741;DHT22;7462;53.530;9.414;2022-07-06T02:28:38;15.30;99.90
14741;DHT22;7462;53.530;9.414;2022-07-06T02:31:06;15.40;99.90
14741;DHT22;7462;53.530;9.414;2022-07-06T02:33:35;15.30;99.90
14741;DHT22;7462;53.530;9.414;2022-07-06T02:36:03;15.40;99.90
14741;DHT22;7462;53.530;9.414;2022-07-06T02:38:31;15.30;99.90
14741;DHT22;7462;53.530;9.414;2022-07-06T02:41:00;15.30;99.90
14741;DHT22;7462;53.530;9.414;2022-07-06T02:43:30;15.30;99.90
14741;DHT22;7462;53.530;9.414;2022-07-06T02:45:58;15.40;99.90
14741;DHT22;7462;53.530;9.414;2022-07-06T02:48:27;15.40;99.90
14741;DHT22;7462;53.530;9.414;2022-07-06T02:50:56;15.40;99.90
14741;DHT22;7462;53.530;9.414;2022-07-06T02:53:25;15.30;99.90
14741;DHT22;7462;53.530;9.414;2022-07-06T02:55:55;15.40;99.90
14741;DHT22;7462;53.530;9.414;2022-07-06T02:58:23;15.30;99.90
14741;DHT22;7462;53.530;9.414;2022-07-06T03:00:53;15.40;99.90
14741;DHT22;7462;53.530;9.414;2022-07-06T03:03:22;15.30;99.90
14741;DHT22;7462;53.530;9.414;2022-07-06T03:05:50;15.30;99.90
14741;DHT22;7462;53.530;9.414;2022-07-06T03:08:19;15.30;99.90
14741;DHT22;7462;53.530;9.414;2022-07-06T03:10:48;15.30;99.90
14741;DHT22;7462;53.530;9.414;2022-07-06T03:13:17;15.30;99.90
14741;DHT22;7462;53.530;9.414;2022-07-06T03:15:45;15.30;99.90
14741;DHT22;7462;53.530;9.414;2022-07-06T03:18:15;15.30;99.90
14741;DHT22;7462;53.530;9.414;2022-07-06T03:20:44;15.30;99.90
14741;DHT22;7462;53.530;9.414;2022-07-06T03:23:14;15.30;99.90
14741;DHT22;7462;53.530;9.414;2022-07-06T03:25:44;15.30;99.90
14741;DHT22;7462;53.530;9.414;2022-07-06T03:28:12;15.30;99.90
14741;DHT22;7462;53.530;9.414;2022-07-06T03:30:40;15.30;99.90
14741;DHT22;7462;53.530;9.414;2022-07-06T03:33:08;15.30;99.90
14741;DHT22;7462;53.530;9.414;2022-07-06T03:35:38;15.30;99.90
14741;DHT22;7462;53.530;9.414;2022-07-06T03:38:07;15.30;99.90
14741;DHT22;7462;53.530;9.414;2022-07-06T03:40:38;15.30;99.90
14741;DHT22;7462;53.530;9.414;2022-07-06T03:43:06;15.40;99.90
14741;DHT22;7462;53.530;9.414;2022-07-06T03:45:36;15.30;99.90
14741;DHT22;7462;53.530;9.414;2022-07-06T03:48:05;15.40;99.90
14741;DHT22;7462;53.530;9.414;2022-07-06T03:50:37;15.40;99.90
14741;DHT22;7462;53.530;9.414;2022-07-06T03:53:06;15.40;99.90
14741;DHT22;7462;53.530;9.414;2022-07-06T03:55:34;15.40;99.90
14741;DHT22;7462;53.530;9.414;2022-07-06T03:58:06;15.40;99.90
14741;DHT22;7462;53.530;9.414;2022-07-06T04:00:37;15.40;99.90
14741;DHT22;7462;53.530;9.414;2022-07-06T04:03:11;15.40;99.90
14741;DHT22;7462;53.530;9.414;2022-07-06T04:05:46;15.40;99.90
14741;DHT22;7462;53.530;9.414;2022-07-06T04:08:14;15.40;99.90
14741;DHT22;7462;53.530;9.414;2022-07-06T04:10:49;15.40;99.90
14741;DHT22;7462;53.530;9.414;2022-07-06T04:13:17;15.40;99.90
14741;DHT22;7462;53.530;9.414;2022-07-06T04:15:45;15.40;99.90
14741;DHT22;7462;53.530;9.414;2022-07-06T04:18:14;15.40;99.90
14741;DHT22;7462;53.530;9.414;2022-07-06T04:20:49;15.40;99.90
14741;DHT22;7462;53.530;9.414;2022-07-06T04:23:18;15.40;99.90
14741;DHT22;7462;53.530;9.414;2022-07-06T04:25:46;15.40;99.90
14741;DHT22;7462;53.530;9.414;2022-07-06T04:28:15;15.40;99.90
14741;DHT22;7462;53.530;9.414;2022-07-06T04:30:43;15.50;99.90
14741;DHT22;7462;53.530;9.414;2022-07-06T04:33:15;15.50;99.90
14741;DHT22;7462;53.530;9.414;2022-07-06T04:35:45;15.50;99.90
14741;DHT22;7462;53.530;9.414;2022-07-06T04:38:15;15.50;99.90
14741;DHT22;7462;53.530;9.414;2022-07-06T04:40:44;15.50;99.90
14741;DHT22;7462;53.530;9.414;2022-07-06T04:43:16;15.60;99.90
14741;DHT22;7462;53.530;9.414;2022-07-06T04:45:44;15.60;99.90
14741;DHT22;7462;53.530;9.414;2022-07-06T04:48:13;15.60;99.90
14741;DHT22;7462;53.530;9.414;2022-07-06T04:50:41;15.60;99.90
14741;DHT22;7462;53.530;9.414;2022-07-06T04:53:17;15.60;99.90
14741;DHT22;7462;53.530;9.414;2022-07-06T04:55:46;15.60;99.90
14741;DHT22;7462;53.530;9.414;2022-07-06T04:58:15;15.60;99.90
14741;DHT22;7462;53.530;9.414;2022-07-06T05:00:43;15.60;99.90
14741;DHT22;7462;53.530;9.414;2022-07-06T05:03:11;15.70;99.90
14741;DHT22;7462;53.530;9.414;2022-07-06T05:05:39;15.70;99.90
14741;DHT22;7462;53.530;9.414;2022-07-06T05:08:07;15.70;99.90
14741;DHT22;7462;53.530;9.414;2022-07-06T05:10:37;15.70;99.90
14741;DHT22;7462;53.530;9.414;2022-07-06T05:13:05;15.70;99.90
14741;DHT22;7462;53.530;9.414;2022-07-06T05:15:34;15.70;99.90
14741;DHT22;7462;53.530;9.414;2022-07-06T05:18:02;15.70;99.90
14741;DHT22;7462;53.530;9.414;2022-07-06T05:20:30;15.80;99.90
14741;DHT22;7462;53.530;9.414;2022-07-06T05:22:59;15.80;99.90
14741;DHT22;7462;53.530;9.414;2022-07-06T05:25:30;15.80;99.90
14741;DHT22;7462;53.530;9.414;2022-07-06T05:28:01;15.90;99.90
14741;DHT22;7462;53.530;9.414;2022-07-06T05:30:30;15.90;99.90
14741;DHT22;7462;53.530;9.414;2022-07-06T05:32:58;15.90;99.90
14741;DHT22;7462;53.530;9.414;2022-07-06T05:35:27;15.90;99.90
14741;DHT22;7462;53.530;9.414;2022-07-06T05:38:15;16.00;99.90
14741;DHT22;7462;53.530;9.414;2022-07-06T05:40:44;16.10;99.90
14741;DHT22;7462;53.530;9.414;2022-07-06T05:43:13;16.10;99.90
14741;DHT22;7462;53.530;9.414;2022-07-06T05:45:41;16.20;99.90
14741;DHT22;7462;53.530;9.414;2022-07-06T05:48:10;16.10;99.90
14741;DHT22;7462;53.530;9.414;2022-07-06T05:50:57;16.10;99.90
14741;DHT22;7462;53.530;9.414;2022-07-06T05:53:25;16.10;99.90
14741;DHT22;7462;53.530;9.414;2022-07-06T05:55:56;16.20;99.90
14741;DHT22;7462;53.530;9.414;2022-07-06T05:58:26;16.30;99.90
14741;DHT22;7462;53.530;9.414;2022-07-06T06:00:57;16.30;99.90
14741;DHT22;7462;53.530;9.414;2022-07-06T06:03:25;16.40;99.90
14741;DHT22;7462;53.530;9.414;2022-07-06T06:05:54;16.50;99.90
14741;DHT22;7462;53.530;9.414;2022-07-06T06:08:24;16.50;99.90
14741;DHT22;7462;53.530;9.414;2022-07-06T06:10:53;16.50;99.90
14741;DHT22;7462;53.530;9.414;2022-07-06T06:13:23;16.60;99.90
14741;DHT22;7462;53.530;9.414;2022-07-06T06:15:52;16.60;99.90
14741;DHT22;7462;53.530;9.414;2022-07-06T06:18:21;16.70;99.90
14741;DHT22;7462;53.530;9.414;2022-07-06T06:20:50;16.70;99.90
14741;DHT22;7462;53.530;9.414;2022-07-06T06:23:18;16.80;99.90
14741;DHT22;7462;53.530;9.414;2022-07-06T06:25:46;16.80;99.90
14741;DHT22;7462;53.530;9.414;2022-07-06T06:28:14;16.90;99.90
14741;DHT22;7462;53.530;9.414;2022-07-06T06:30:42;16.90;99.90
14741;DHT22;7462;53.530;9.414;2022-07-06T06:33:13;17.00;99.90
14741;DHT22;7462;53.530;9.414;2022-07-06T06:35:43;17.00;99.90
14741;DHT22;7462;53.530;9.414;2022-07-06T06:38:12;17.10;99.90
14741;DHT22;7462;53.530;9.414;2022-07-06T06:40:41;17.10;99.90
14741;DHT22;7462;53.530;9.414;2022-07-06T06:43:09;17.20;99.90
14741;DHT22;7462;53.530;9.414;2022-07-06T06:45:44;17.30;99.90
14741;DHT22;7462;53.530;9.414;2022-07-06T06:48:14;17.30;99.90
14741;DHT22;7462;53.530;9.414;2022-07-06T06:50:44;17.40;99.90
14741;DHT22;7462;53.530;9.414;2022-07-06T06:53:12;17.50;99.90
14741;DHT22;7462;53.530;9.414;2022-07-06T06:55:40;17.60;99.90
14741;DHT22;7462;53.530;9.414;2022-07-06T06:58:09;17.70;99.90
14741;DHT22;7462;53.530;9.414;2022-07-06T07:00:37;17.70;99.90
14741;DHT22;7462;53.530;9.414;2022-07-06T07:03:05;17.80;99.90
14741;DHT22;7462;53.530;9.414;2022-07-06T07:05:34;17.90;99.90
14741;DHT22;7462;53.530;9.414;2022-07-06T07:08:03;17.90;99.90
14741;DHT22;7462;53.530;9.414;2022-07-06T07:10:32;18.00;99.90
14741;DHT22;7462;53.530;9.414;2022-07-06T07:13:00;18.00;99.90
14741;DHT22;7462;53.530;9.414;2022-07-06T07:15:28;18.10;99.90
14741;DHT22;7462;53.530;9.414;2022-07-06T07:17:56;18.20;99.90
14741;DHT22;7462;53.530;9.414;2022-07-06T07:20:24;18.30;99.90
14741;DHT22;7462;53.530;9.414;2022-07-06T07:22:54;18.40;99.90
14741;DHT22;7462;53.530;9.414;2022-07-06T07:25:22;18.60;99.90
14741;DHT22;7462;53.530;9.414;2022-07-06T07:27:50;18.70;99.90
14741;DHT22;7462;53.530;9.414;2022-07-06T07:30:18;18.60;99.90
14741;DHT22;7462;53.530;9.414;2022-07-06T07:32:47;18.70;99.90
14741;DHT22;7462;53.530;9.414;2022-07-06T07:35:15;18.90;99.90
14741;DHT22;7462;53.530;9.414;2022-07-06T07:37:43;19.00;99.90
14741;DHT22;7462;53.530;9.414;2022-07-06T07:40:13;19.00;99.90
14741;DHT22;7462;53.530;9.414;2022-07-06T07:42:41;19.10;99.90
14741;DHT22;7462;53.530;9.414;2022-07-06T07:45:10;19.40;99.90
14741;DHT22;7462;53.530;9.414;2022-07-06T07:47:39;19.30;99.90
14741;DHT22;7462;53.530;9.414;2022-07-06T07:50:08;19.20;99.90
14741;DHT22;7462;53.530;9.414;2022-07-06T07:52:37;18.90;99.90
14741;DHT22;7462;53.530;9.414;2022-07-06T07:55:06;18.70;99.90
14741;DHT22;7462;53.530;9.414;2022-07-06T07:57:55;18.40;99.90
14741;DHT22;7462;53.530;9.414;2022-07-06T08:00:24;18.40;99.90
14741;DHT22;7462;53.530;9.414;2022-07-06T08:02:54;18.40;99.90
14741;DHT22;7462;53.530;9.414;2022-07-06T08:05:22;18.30;99.90
14741;DHT22;7462;53.530;9.414;2022-07-06T08:07:50;18.20;99.90
14741;DHT22;7462;53.530;9.414;2022-07-06T08:10:19;17.90;99.90
14741;DHT22;7462;53.530;9.414;2022-07-06T08:12:47;17.60;99.90
14741;DHT22;7462;53.530;9.414;2022-07-06T08:15:16;17.40;99.90
14741;DHT22;7462;53.530;9.414;2022-07-06T08:17:45;17.10;99.90
14741;DHT22;7462;53.530;9.414;2022-07-06T08:20:13;16.80;99.90
14741;DHT22;7462;53.530;9.414;2022-07-06T08:22:42;16.70;99.90
14741;DHT22;7462;53.530;9.414;2022-07-06T08:25:10;16.60;99.90
14741;DHT22;7462;53.530;9.414;2022-07-06T08:27:39;16.50;99.90
14741;DHT22;7462;53.530;9.414;2022-07-06T08:30:11;16.50;99.90
14741;DHT22;7462;53.530;9.414;2022-07-06T08:32:42;16.50;99.90
14741;DHT22;7462;53.530;9.414;2022-07-06T08:35:30;16.60;99.90
14741;DHT22;7462;53.530;9.414;2022-07-06T08:37:59;16.60;99.90
14741;DHT22;7462;53.530;9.414;2022-07-06T08:40:32;16.60;99.90
14741;DHT22;7462;53.530;9.414;2022-07-06T08:43:06;16.50;99.90
14741;DHT22;7462;53.530;9.414;2022-07-06T08:45:35;16.30;99.90
14741;DHT22;7462;53.530;9.414;2022-07-06T08:48:06;16.40;99.90
14741;DHT22;7462;53.530;9.414;2022-07-06T08:50:34;16.40;99.90
14741;DHT22;7462;53.530;9.414;2022-07-06T08:53:03;16.40;99.90
14741;DHT22;7462;53.530;9.414;2022-07-06T08:55:33;16.30;99.90
14741;DHT22;7462;53.530;9.414;2022-07-06T08:58:02;16.50;99.90
14741;DHT22;7462;53.530;9.414;2022-07-06T09:00:34;16.70;99.90
14741;DHT22;7462;53.530;9.414;2022-07-06T09:03:02;16.90;99.90
14741;DHT22;7462;53.530;9.414;2022-07-06T09:05:32;17.10;99.90
14741;DHT22;7462;53.530;9.414;2022-07-06T09:08:03;17.30;99.90
14741;DHT22;7462;53.530;9.414;2022-07-06T09:10:31;17.50;99.90
14741;DHT22;7462;53.530;9.414;2022-07-06T09:13:03;17.70;99.90
14741;DHT22;7462;53.530;9.414;2022-07-06T09:15:32;17.80;99.90
14741;DHT22;7462;53.530;9.414;2022-07-06T09:18:01;17.90;99.90
14741;DHT22;7462;53.530;9.414;2022-07-06T09:20:29;18.10;99.90
14741;DHT22;7462;53.530;9.414;2022-07-06T09:23:01;18.40;99.90
14741;DHT22;7462;53.530;9.414;2022-07-06T09:25:30;18.60;99.90
14741;DHT22;7462;53.530;9.414;2022-07-06T09:27:59;18.90;99.90
14741;DHT22;7462;53.530;9.414;2022-07-06T09:30:28;19.10;99.90
14741;DHT22;7462;53.530;9.414;2022-07-06T09:32:58;19.40;99.90
14741;DHT22;7462;53.530;9.414;2022-07-06T09:35:28;19.50;99.90
14741;DHT22;7462;53.530;9.414;2022-07-06T09:38:03;19.60;99.90
14741;DHT22;7462;53.530;9.414;2022-07-06T09:40:33;19.90;99.90
14741;DHT22;7462;53.530;9.414;2022-07-06T09:43:08;20.30;99.90
14741;DHT22;7462;53.530;9.414;2022-07-06T09:45:38;20.60;99.90
14741;DHT22;7462;53.530;9.414;2022-07-06T09:48:09;20.60;99.90
14741;DHT22;7462;53.530;9.414;2022-07-06T09:50:42;20.60;99.90
14741;DHT22;7462;53.530;9.414;2022-07-06T09:53:13;20.50;99.90
14741;DHT22;7462;53.530;9.414;2022-07-06T09:55:44;20.40;99.90
14741;DHT22;7462;53.530;9.414;2022-07-06T09:58:13;20.30;99.90
14741;DHT22;7462;53.530;9.414;2022-07-06T10:00:41;20.10;99.90
14741;DHT22;7462;53.530;9.414;2022-07-06T10:03:10;20.00;99.90
14741;DHT22;7462;53.530;9.414;2022-07-06T10:05:40;19.70;99.90
14741;DHT22;7462;53.530;9.414;2022-07-06T10:08:09;19.60;99.90
14741;DHT22;7462;53.530;9.414;2022-07-06T10:10:40;19.60;99.90
14741;DHT22;7462;53.530;9.414;2022-07-06T10:13:09;19.40;99.90
14741;DHT22;7462;53.530;9.414;2022-07-06T10:15:39;19.40;99.90
14741;DHT22;7462;53.530;9.414;2022-07-06T10:18:09;19.40;99.90
14741;DHT22;7462;53.530;9.414;2022-07-06T10:20:38;19.50;99.90
14741;DHT22;7462;53.530;9.414;2022-07-06T10:23:08;19.50;99.90
14741;DHT22;7462;53.530;9.414;2022-07-06T10:25:38;19.80;99.90
14741;DHT22;7462;53.530;9.414;2022-07-06T10:28:07;20.00;99.90
14741;DHT22;7462;53.530;9.414;2022-07-06T10:30:42;20.20;99.90
14741;DHT22;7462;53.530;9.414;2022-07-06T10:33:12;20.20;99.90
14741;DHT22;7462;53.530;9.414;2022-07-06T10:35:42;20.40;99.90
14741;DHT22;7462;53.530;9.414;2022-07-06T10:38:11;20.90;99.90
14741;DHT22;7462;53.530;9.414;2022-07-06T10:40:41;21.70;99.90
14741;DHT22;7462;53.530;9.414;2022-07-06T10:43:35;23.10;99.90
14741;DHT22;7462;53.530;9.414;2022-07-06T10:46:07;23.50;99.90
14741;DHT22;7462;53.530;9.414;2022-07-06T10:48:37;22.90;99.90
14741;DHT22;7462;53.530;9.414;2022-07-06T10:51:05;22.00;99.90
14741;DHT22;7462;53.530;9.414;2022-07-06T10:53:35;21.30;99.90
14741;DHT22;7462;53.530;9.414;2022-07-06T10:56:07;20.40;99.90
14741;DHT22;7462;53.530;9.414;2022-07-06T10:58:41;19.80;99.90
14741;DHT22;7462;53.530;9.414;2022-07-06T11:01:11;19.70;99.90
14741;DHT22;7462;53.530;9.414;2022-07-06T11:03:41;19.70;99.90
14741;DHT22;7462;53.530;9.414;2022-07-06T11:06:14;19.90;99.90
14741;DHT22;7462;53.530;9.414;2022-07-06T11:08:44;20.40;99.90
14741;DHT22;7462;53.530;9.414;2022-07-06T11:11:15;21.30;99.90
14741;DHT22;7462;53.530;9.414;2022-07-06T11:13:48;22.20;99.90
14741;DHT22;7462;53.530;9.414;2022-07-06T11:16:17;22.60;99.90
14741;DHT22;7462;53.530;9.414;2022-07-06T11:18:47;22.50;99.90
14741;DHT22;7462;53.530;9.414;2022-07-06T11:21:21;23.00;99.90
14741;DHT22;7462;53.530;9.414;2022-07-06T11:23:50;23.10;99.90
14741;DHT22;7462;53.530;9.414;2022-07-06T11:26:21;22.50;99.90
14741;DHT22;7462;53.530;9.414;2022-07-06T11:28:51;21.80;99.90
14741;DHT22;7462;53.530;9.414;2022-07-06T11:31:19;21.70;99.90
14741;DHT22;7462;53.530;9.414;2022-07-06T11:33:48;21.60;99.90
14741;DHT22;7462;53.530;9.414;2022-07-06T11:36:18;21.70;99.90
14741;DHT22;7462;53.530;9.414;2022-07-06T11:38:47;22.30;99.90
14741;DHT22;7462;53.530;9.414;2022-07-06T11:41:17;22.40;99.90
14741;DHT22;7462;53.530;9.414;2022-07-06T11:43:47;22.80;99.90
14741;DHT22;7462;53.530;9.414;2022-07-06T11:46:22;23.60;99.90
14741;DHT22;7462;53.530;9.414;2022-07-06T11:48:52;24.40;99.90
14741;DHT22;7462;53.530;9.414;2022-07-06T11:51:21;24.80;99.90
14741;DHT22;7462;53.530;9.414;2022-07-06T11:53:52;25.30;99.90
14741;DHT22;7462;53.530;9.414;2022-07-06T11:56:23;25.70;99.90
14741;DHT22;7462;53.530;9.414;2022-07-06T11:58:58;24.80;99.90
14741;DHT22;7462;53.530;9.414;2022-07-06T12:01:27;23.90;99.90
14741;DHT22;7462;53.530;9.414;2022-07-06T12:03:58;23.20;99.90
14741;DHT22;7462;53.530;9.414;2022-07-06T12:06:27;22.80;99.90
14741;DHT22;7462;53.530;9.414;2022-07-06T12:08:57;22.80;99.90
14741;DHT22;7462;53.530;9.414;2022-07-06T12:11:28;23.20;99.90
14741;DHT22;7462;53.530;9.414;2022-07-06T12:13:59;23.00;99.90
14741;DHT22;7462;53.530;9.414;2022-07-06T12:16:32;22.50;99.90
14741;DHT22;7462;53.530;9.414;2022-07-06T12:19:03;22.10;99.90
14741;DHT22;7462;53.530;9.414;2022-07-06T12:21:34;21.70;99.90
14741;DHT22;7462;53.530;9.414;2022-07-06T12:24:06;21.60;99.90
14741;DHT22;7462;53.530;9.414;2022-07-06T12:26:39;21.60;99.90
14741;DHT22;7462;53.530;9.414;2022-07-06T12:29:11;21.30;99.90
14741;DHT22;7462;53.530;9.414;2022-07-06T12:31:41;21.10;99.90
14741;DHT22;7462;53.530;9.414;2022-07-06T12:34:14;21.10;99.90
14741;DHT22;7462;53.530;9.414;2022-07-06T12:36:44;21.20;99.90
14741;DHT22;7462;53.530;9.414;2022-07-06T12:39:14;21.20;99.90
14741;DHT22;7462;53.530;9.414;2022-07-06T12:41:47;21.10;99.90
14741;DHT22;7462;53.530;9.414;2022-07-06T12:44:18;21.00;99.90
14741;DHT22;7462;53.530;9.414;2022-07-06T12:46:46;20.90;99.90
14741;DHT22;7462;53.530;9.414;2022-07-06T12:49:19;21.10;99.90
14741;DHT22;7462;53.530;9.414;2022-07-06T12:51:54;21.50;99.90
14741;DHT22;7462;53.530;9.414;2022-07-06T12:54:23;21.90;99.90
14741;DHT22;7462;53.530;9.414;2022-07-06T12:57:13;22.10;99.90
14741;DHT22;7462;53.530;9.414;2022-07-06T12:59:47;22.30;99.90
14741;DHT22;7462;53.530;9.414;2022-07-06T13:02:21;22.20;99.90
14741;DHT22;7462;53.530;9.414;2022-07-06T13:05:11;21.90;99.90
14741;DHT22;7462;53.530;9.414;2022-07-06T13:07:44;22.10;99.90
14741;DHT22;7462;53.530;9.414;2022-07-06T13:10:14;22.10;99.90
14741;DHT22;7462;53.530;9.414;2022-07-06T13:12:43;22.20;99.90
14741;DHT22;7462;53.530;9.414;2022-07-06T13:15:13;22.00;99.90
14741;DHT22;7462;53.530;9.414;2022-07-06T13:17:41;21.60;99.90
14741;DHT22;7462;53.530;9.414;2022-07-06T13:20:12;21.60;99.90
14741;DHT22;7462;53.530;9.414;2022-07-06T13:22:40;21.80;99.90
14741;DHT22;7462;53.530;9.414;2022-07-06T13:25:08;21.80;99.90
14741;DHT22;7462;53.530;9.414;2022-07-06T13:27:37;21.90;99.90
14741;DHT22;7462;53.530;9.414;2022-07-06T13:30:05;22.10;99.90
14741;DHT22;7462;53.530;9.414;2022-07-06T13:32:35;22.20;99.90
14741;DHT22;7462;53.530;9.414;2022-07-06T13:35:03;21.90;99.90
14741;DHT22;7462;53.530;9.414;2022-07-06T13:37:32;21.80;99.90
14741;DHT22;7462;53.530;9.414;2022-07-06T13:40:01;21.90;99.90
14741;DHT22;7462;53.530;9.414;2022-07-06T13:42:29;21.90;99.90
14741;DHT22;7462;53.530;9.414;2022-07-06T13:44:57;21.60;99.90
14741;DHT22;7462;53.530;9.414;2022-07-06T13:47:26;21.40;99.90
14741;DHT22;7462;53.530;9.414;2022-07-06T13:49:55;21.40;99.90
14741;DHT22;7462;53.530;9.414;2022-07-06T13:52:23;21.30;99.90
14741;DHT22;7462;53.530;9.414;2022-07-06T13:54:52;21.40;99.90
14741;DHT22;7462;53.530;9.414;2022-07-06T13:57:27;21.80;99.90
14741;DHT22;7462;53.530;9.414;2022-07-06T13:59:55;21.90;99.90
14741;DHT22;7462;53.530;9.414;2022-07-06T14:02:23;21.90;99.90
14741;DHT22;7462;53.530;9.414;2022-07-06T14:04:52;22.10;99.90
14741;DHT22;7462;53.530;9.414;2022-07-06T14:07:21;22.10;99.90
14741;DHT22;7462;53.530;9.414;2022-07-06T14:09:50;22.10;99.90
14741;DHT22;7462;53.530;9.414;2022-07-06T14:12:19;22.20;99.90
14741;DHT22;7462;53.530;9.414;2022-07-06T14:14:49;22.30;99.90
14741;DHT22;7462;53.530;9.414;2022-07-06T14:17:18;22.40;99.90
14741;DHT22;7462;53.530;9.414;2022-07-06T14:19:46;22.50;99.90
14741;DHT22;7462;53.530;9.414;2022-07-06T14:22:15;22.50;99.90
14741;DHT22;7462;53.530;9.414;2022-07-06T14:24:45;22.40;99.90
14741;DHT22;7462;53.530;9.414;2022-07-06T14:27:13;22.30;99.90
14741;DHT22;7462;53.530;9.414;2022-07-06T14:29:41;22.30;99.90
14741;DHT22;7462;53.530;9.414;2022-07-06T14:32:09;22.20;99.90
14741;DHT22;7462;53.530;9.414;2022-07-06T14:34:37;22.00;99.90
14741;DHT22;7462;53.530;9.414;2022-07-06T14:37:05;21.80;99.90
14741;DHT22;7462;53.530;9.414;2022-07-06T14:39:33;21.50;99.90
14741;DHT22;7462;53.530;9.414;2022-07-06T14:42:03;21.20;99.90
14741;DHT22;7462;53.530;9.414;2022-07-06T14:44:32;21.20;99.90
14741;DHT22;7462;53.530;9.414;2022-07-06T14:47:00;21.00;99.90
14741;DHT22;7462;53.530;9.414;2022-07-06T14:49:28;20.80;99.90
14741;DHT22;7462;53.530;9.414;2022-07-06T14:51:56;20.80;99.90
14741;DHT22;7462;53.530;9.414;2022-07-06T14:54:24;20.90;99.90
14741;DHT22;7462;53.530;9.414;2022-07-06T14:56:52;20.90;99.90
14741;DHT22;7462;53.530;9.414;2022-07-06T14:59:23;20.90;99.90
14741;DHT22;7462;53.530;9.414;2022-07-06T15:01:52;21.00;99.90
14741;DHT22;7462;53.530;9.414;2022-07-06T15:04:21;21.20;99.90
14741;DHT22;7462;53.530;9.414;2022-07-06T15:06:49;21.30;99.90
14741;DHT22;7462;53.530;9.414;2022-07-06T15:09:21;21.20;99.90
14741;DHT22;7462;53.530;9.414;2022-07-06T15:11:49;21.10;99.90
14741;DHT22;7462;53.530;9.414;2022-07-06T15:14:17;21.10;99.90
14741;DHT22;7462;53.530;9.414;2022-07-06T15:16:47;21.10;99.90
14741;DHT22;7462;53.530;9.414;2022-07-06T15:19:16;21.20;99.90
14741;DHT22;7462;53.530;9.414;2022-07-06T15:21:44;21.00;99.90
14741;DHT22;7462;53.530;9.414;2022-07-06T15:24:12;21.10;99.90
14741;DHT22;7462;53.530;9.414;2022-07-06T15:26:40;20.90;99.90
14741;DHT22;7462;53.530;9.414;2022-07-06T15:29:09;20.90;99.90
14741;DHT22;7462;53.530;9.414;2022-07-06T15:31:37;20.80;99.90
14741;DHT22;7462;53.530;9.414;2022-07-06T15:34:07;20.70;99.90
14741;DHT22;7462;53.530;9.414;2022-07-06T15:36:35;20.80;99.90
14741;DHT22;7462;53.530;9.414;2022-07-06T15:39:03;20.80;99.90
14741;DHT22;7462;53.530;9.414;2022-07-06T15:41:32;20.90;99.90
14741;DHT22;7462;53.530;9.414;2022-07-06T15:44:00;20.90;99.90
14741;DHT22;7462;53.530;9.414;2022-07-06T15:46:28;20.80;99.90
14741;DHT22;7462;53.530;9.414;2022-07-06T15:48:56;20.80;99.90
14741;DHT22;7462;53.530;9.414;2022-07-06T15:51:26;21.00;99.90
14741;DHT22;7462;53.530;9.414;2022-07-06T15:53:54;21.10;99.90
14741;DHT22;7462;53.530;9.414;2022-07-06T15:56:22;21.00;99.90
14741;DHT22;7462;53.530;9.414;2022-07-06T15:58:50;21.10;99.90
14741;DHT22;7462;53.530;9.414;2022-07-06T16:01:18;21.00;99.90
14741;DHT22;7462;53.530;9.414;2022-07-06T16:03:47;21.00;99.90